createdAt,value
2017-12-25T00:00:31.154Z,99.99
2017-12-25T00:00:59.955Z,99.99
2017-12-25T00:01:29.032Z,99.99
2017-12-25T00:02:11.585Z,99.99
2017-12-25T00:02:40.007Z,99.99
2017-12-25T00:03:38.210Z,99.99
2017-12-25T00:04:08.737Z,99.99
2017-12-25T00:04:36.761Z,99.99
2017-12-25T00:05:20.083Z,99.99
2017-12-25T00:08:10.176Z,99.99
2017-12-25T00:08:38.313Z,99.99
2017-12-25T00:09:06.337Z,99.99
2017-12-25T00:09:48.894Z,99.99
2017-12-25T00:10:33.612Z,99.99
2017-12-25T00:11:16.150Z,99.99
2017-12-25T00:12:28.342Z,99.99
2017-12-25T00:12:56.350Z,99.99
2017-12-25T00:13:39.672Z,99.99
2017-12-25T00:14:07.692Z,99.99
2017-12-25T00:14:37.743Z,99.99
2017-12-25T00:15:06.526Z,99.99
2017-12-25T00:16:32.008Z,99.99
2017-12-25T00:18:28.556Z,99.99
2017-12-25T00:19:28.060Z,99.99
2017-12-25T00:19:56.301Z,99.99
2017-12-25T00:20:39.073Z,99.99
2017-12-25T00:21:07.497Z,99.99
2017-12-25T00:21:36.309Z,99.99
2017-12-25T00:22:05.173Z,99.99
2017-12-25T00:22:33.616Z,99.99
2017-12-25T00:23:21.230Z,99.99
2017-12-25T00:23:50.317Z,99.99
2017-12-25T00:24:19.600Z,99.99
2017-12-25T00:24:48.404Z,99.99
2017-12-25T00:25:17.253Z,99.99
2017-12-25T00:25:47.010Z,99.99
2017-12-25T00:26:16.859Z,99.99
2017-12-25T00:27:50.031Z,99.99
2017-12-25T00:28:19.221Z,99.99
2017-12-25T00:28:48.451Z,99.99
2017-12-25T00:29:16.479Z,99.99
2017-12-25T00:31:40.104Z,99.99
2017-12-25T00:32:08.127Z,99.99
2017-12-25T00:32:36.939Z,99.99
2017-12-25T00:33:34.006Z,99.99
2017-12-25T00:34:03.379Z,99.99
2017-12-25T00:34:31.317Z,99.99
2017-12-25T00:34:59.859Z,99.99
2017-12-25T00:35:28.699Z,99.99
2017-12-25T00:35:57.781Z,99.99
2017-12-25T00:36:26.209Z,99.99
2017-12-25T00:37:38.380Z,99.99
2017-12-25T00:38:21.126Z,99.99
2017-12-25T00:38:50.385Z,99.99
2017-12-25T00:39:22.364Z,99.99
2017-12-25T00:39:50.396Z,99.99
2017-12-25T00:40:18.411Z,99.99
2017-12-25T00:42:12.988Z,99.99
2017-12-25T00:42:42.364Z,99.99
2017-12-25T00:43:10.941Z,99.99
2017-12-25T00:43:40.444Z,99.99
2017-12-25T00:44:22.977Z,99.99
2017-12-25T00:44:50.994Z,99.99
2017-12-25T00:45:19.245Z,99.99
2017-12-25T00:46:03.511Z,99.99
2017-12-25T00:46:32.349Z,99.99
2017-12-25T00:47:17.028Z,99.99
2017-12-25T00:48:57.905Z,99.99
2017-12-25T00:50:52.509Z,99.99
2017-12-25T00:52:19.666Z,99.99
2017-12-25T00:54:00.133Z,99.99
2017-12-25T00:55:27.460Z,99.99
2017-12-25T00:55:56.089Z,99.99
2017-12-25T00:56:24.644Z,99.99
2017-12-25T00:56:52.777Z,99.99
2017-12-25T00:57:21.420Z,99.99
2017-12-25T00:57:49.952Z,99.99
2017-12-25T00:58:18.953Z,99.99
2017-12-25T01:00:28.544Z,99.99
2017-12-25T01:04:05.169Z,99.99
2017-12-25T01:04:48.220Z,99.99
2017-12-25T01:05:31.415Z,99.99
2017-12-25T01:07:29.234Z,99.99
2017-12-25T01:07:58.275Z,99.99
2017-12-25T01:08:42.306Z,99.99
2017-12-25T01:09:13.301Z,99.99
2017-12-25T01:12:22.219Z,99.99
2017-12-25T01:13:06.151Z,99.99
2017-12-25T01:13:50.703Z,99.99
2017-12-25T01:14:19.883Z,99.99
2017-12-25T01:15:03.978Z,99.99
2017-12-25T01:16:01.204Z,99.99
2017-12-25T01:16:44.229Z,99.99
2017-12-25T01:18:41.193Z,99.99
2017-12-25T01:20:52.775Z,99.99
2017-12-25T01:22:06.219Z,99.99
2017-12-25T01:22:35.244Z,99.99
2017-12-25T01:23:03.700Z,99.99
2017-12-25T01:23:33.472Z,99.99
2017-12-25T01:25:28.856Z,99.99
2017-12-25T01:26:27.762Z,99.99
2017-12-25T01:28:50.508Z,99.99
2017-12-25T01:29:33.066Z,99.99
2017-12-25T01:30:30.670Z,99.99
2017-12-25T01:31:28.046Z,99.99
2017-12-25T01:33:10.605Z,99.99
2017-12-25T01:34:22.713Z,99.99
2017-12-25T01:35:20.027Z,99.99
2017-12-25T01:37:02.011Z,99.99
2017-12-25T01:37:30.395Z,99.99
2017-12-25T01:38:41.991Z,99.99
2017-12-25T01:39:30.008Z,99.99
2017-12-25T01:40:41.508Z,99.99
2017-12-25T01:41:38.602Z,99.99
2017-12-25T01:46:00.555Z,99.99
2017-12-25T01:48:09.350Z,99.99
2017-12-25T01:48:51.884Z,99.99
2017-12-25T01:54:33.939Z,99.99
2017-12-25T01:55:45.969Z,99.99
2017-12-25T01:57:41.366Z,99.99
2017-12-25T02:01:02.347Z,99.99
2017-12-25T02:02:00.418Z,99.99
2017-12-25T02:02:29.675Z,99.99
2017-12-25T02:03:26.778Z,99.99
2017-12-25T02:05:50.787Z,99.99
2017-12-25T02:06:33.622Z,99.99
2017-12-25T02:07:45.220Z,99.99
2017-12-25T02:09:54.308Z,99.99
2017-12-25T02:11:06.327Z,99.99
2017-12-25T02:12:18.347Z,99.99
2017-12-25T02:13:05.350Z,99.99
2017-12-25T02:14:46.792Z,99.99
2017-12-25T02:16:12.913Z,99.99
2017-12-25T02:16:56.271Z,99.99
2017-12-25T02:19:21.052Z,99.99
2017-12-25T02:22:56.886Z,99.99
2017-12-25T02:24:24.993Z,99.99
2017-12-25T02:25:37.564Z,99.99
2017-12-25T02:28:29.725Z,99.99
2017-12-25T02:29:26.804Z,99.99
2017-12-25T02:31:10.762Z,99.99
2017-12-25T02:34:44.917Z,99.99
2017-12-25T02:35:28.377Z,99.99
2017-12-25T02:39:03.372Z,99.99
2017-12-25T02:42:23.670Z,99.99
2017-12-25T02:44:48.012Z,99.99
2017-12-25T02:45:45.337Z,99.99
2017-12-25T02:46:42.413Z,99.99
2017-12-25T02:47:40.001Z,99.99
2017-12-25T02:50:32.165Z,99.99
2017-12-25T02:51:29.442Z,99.99
2017-12-25T02:52:12.499Z,99.99
2017-12-25T02:53:39.039Z,99.99
2017-12-25T02:54:22.464Z,99.99
2017-12-25T02:58:42.531Z,99.99
2017-12-25T02:59:40.030Z,99.99
2017-12-25T03:02:31.980Z,99.99
2017-12-25T03:06:37.295Z,99.99
2017-12-25T03:07:19.939Z,99.99
2017-12-25T03:07:49.531Z,99.99
2017-12-25T03:08:18.491Z,99.99
2017-12-25T03:09:01.020Z,99.99
2017-12-25T03:09:44.083Z,99.99
2017-12-25T03:10:27.534Z,99.99
2017-12-25T03:10:57.104Z,99.99
2017-12-25T03:11:40.853Z,99.99
2017-12-25T03:12:10.183Z,99.99
2017-12-25T03:12:39.762Z,99.99
2017-12-25T03:13:22.743Z,99.99
2017-12-25T03:14:05.486Z,99.99
2017-12-25T03:14:34.215Z,99.99
2017-12-25T03:16:00.269Z,99.99
2017-12-25T03:16:42.723Z,99.99
2017-12-25T03:17:25.796Z,99.99
2017-12-25T03:18:08.338Z,99.99
2017-12-25T03:20:05.051Z,99.99
2017-12-25T03:20:48.008Z,99.99
2017-12-25T03:23:10.687Z,99.99
2017-12-25T03:23:39.329Z,99.99
2017-12-25T03:24:22.583Z,99.99
2017-12-25T03:24:51.865Z,99.99
2017-12-25T03:27:16.254Z,99.99
2017-12-25T03:29:10.897Z,99.99
2017-12-25T03:30:08.701Z,99.99
2017-12-25T03:30:52.186Z,99.99
2017-12-25T03:31:35.199Z,99.99
2017-12-25T03:33:01.314Z,99.99
2017-12-25T03:34:56.656Z,99.99
2017-12-25T03:36:37.514Z,99.99
2017-12-25T03:38:32.214Z,99.99
2017-12-25T03:41:10.849Z,99.99
2017-12-25T03:42:36.696Z,99.99
2017-12-25T03:43:05.946Z,99.99
2017-12-25T03:45:16.837Z,99.99
2017-12-25T03:46:00.404Z,99.99
2017-12-25T03:47:55.339Z,99.99
2017-12-25T03:50:48.711Z,99.99
2017-12-25T03:51:31.587Z,99.99
2017-12-25T03:53:55.991Z,99.99
2017-12-25T03:57:51.286Z,99.99
2017-12-25T03:58:48.627Z,99.99
2017-12-25T03:59:17.078Z,99.99
2017-12-25T03:59:59.636Z,99.99
2017-12-25T04:01:53.789Z,99.99
2017-12-25T04:02:37.275Z,99.99
2017-12-25T04:03:49.289Z,99.99
2017-12-25T04:04:32.451Z,99.99
2017-12-25T04:05:29.943Z,99.99
2017-12-25T04:06:41.869Z,99.99
2017-12-25T04:08:23.705Z,99.99
2017-12-25T04:09:35.398Z,99.99
2017-12-25T04:10:32.484Z,99.99
2017-12-25T04:11:29.757Z,99.99
2017-12-25T04:12:13.408Z,99.99
2017-12-25T04:13:25.548Z,99.99
2017-12-25T04:19:10.627Z,99.99
2017-12-25T04:20:08.427Z,99.99
2017-12-25T04:22:17.836Z,99.99
2017-12-25T04:24:41.854Z,99.99
2017-12-25T04:26:36.731Z,99.99
2017-12-25T04:27:20.395Z,99.99
2017-12-25T04:28:37.851Z,99.99
2017-12-25T04:29:22.581Z,99.99
2017-12-25T04:31:08.586Z,99.99
2017-12-25T04:32:05.661Z,99.99
2017-12-25T04:33:17.683Z,99.99
2017-12-25T04:34:01.078Z,99.99
2017-12-25T04:35:43.483Z,99.99
2017-12-25T04:36:13.727Z,99.99
2017-12-25T04:38:07.774Z,99.99
2017-12-25T04:38:50.307Z,99.99
2017-12-25T04:40:59.586Z,99.99
2017-12-25T04:41:57.944Z,99.99
2017-12-25T04:42:27.182Z,99.99
2017-12-25T04:43:39.469Z,99.99
2017-12-25T04:44:08.280Z,99.99
2017-12-25T04:47:15.858Z,99.99
2017-12-25T04:48:28.976Z,99.99
2017-12-25T04:50:09.501Z,99.99
2017-12-25T04:51:07.576Z,99.99
2017-12-25T04:51:54.489Z,99.99
2017-12-25T04:53:19.343Z,99.99
2017-12-25T04:54:18.153Z,99.99
2017-12-25T04:56:30.391Z,99.99
2017-12-25T04:57:57.003Z,99.99
2017-12-25T05:00:21.461Z,99.99
2017-12-25T05:02:58.703Z,99.99
2017-12-25T05:05:08.906Z,99.99
2017-12-25T05:07:32.865Z,99.99
2017-12-25T05:09:56.859Z,99.99
2017-12-25T05:10:59.460Z,99.99
2017-12-25T05:11:57.882Z,99.99
2017-12-25T05:13:09.896Z,99.99
2017-12-25T05:13:53.131Z,99.99
2017-12-25T05:14:23.396Z,99.99
2017-12-25T05:15:34.901Z,99.99
2017-12-25T05:17:16.506Z,99.99
2017-12-25T05:21:07.813Z,99.99
2017-12-25T05:23:01.962Z,99.99
2017-12-25T05:27:08.469Z,99.99
2017-12-25T05:27:52.601Z,99.99
2017-12-25T05:29:37.924Z,99.99
2017-12-25T05:30:49.429Z,99.99
2017-12-25T05:31:47.052Z,99.99
2017-12-25T05:32:32.862Z,99.99
2017-12-25T05:33:30.703Z,99.99
2017-12-25T05:34:13.220Z,99.99
2017-12-25T05:36:47.177Z,99.99
2017-12-25T05:37:59.457Z,99.99
2017-12-25T05:38:28.233Z,99.99
2017-12-25T05:38:57.474Z,99.99
2017-12-25T05:40:37.935Z,99.99
2017-12-25T05:44:18.695Z,99.99
2017-12-25T05:46:16.277Z,99.99
2017-12-25T05:47:27.782Z,99.99
2017-12-25T05:49:42.692Z,99.99
2017-12-25T05:50:40.561Z,99.99
2017-12-25T05:51:23.948Z,99.99
2017-12-25T05:52:21.804Z,99.99
2017-12-25T05:53:06.733Z,99.99
2017-12-25T05:54:24.600Z,99.99
2017-12-25T05:55:41.237Z,99.99
2017-12-25T05:56:09.238Z,99.99
2017-12-25T05:57:06.866Z,99.99
2017-12-25T05:57:49.734Z,99.99
2017-12-25T05:58:32.782Z,99.99
2017-12-25T05:59:20.462Z,99.99
2017-12-25T06:00:47.371Z,99.99
2017-12-25T06:02:49.504Z,99.99
2017-12-25T06:04:02.571Z,99.99
2017-12-25T06:04:45.959Z,99.99
2017-12-25T06:12:26.363Z,99.99
2017-12-25T06:15:08.210Z,99.99
2017-12-25T06:17:47.433Z,99.99
2017-12-25T06:18:45.150Z,99.99
2017-12-25T06:19:27.929Z,99.99
2017-12-25T06:19:58.429Z,99.99
2017-12-25T06:20:27.380Z,99.99
2017-12-25T06:21:24.639Z,99.99
2017-12-25T06:24:19.235Z,99.99
2017-12-25T06:25:17.596Z,99.99
2017-12-25T06:26:29.103Z,99.99
2017-12-25T06:27:14.646Z,99.99
2017-12-25T06:30:08.613Z,99.99
2017-12-25T06:35:40.950Z,99.99
2017-12-25T06:36:24.500Z,99.99
2017-12-25T06:42:40.390Z,99.99
2017-12-25T06:43:38.663Z,99.99
2017-12-25T06:44:22.631Z,99.99
2017-12-25T06:45:20.484Z,99.99
2017-12-25T06:46:03.546Z,99.99
2017-12-25T06:48:54.685Z,99.99
2017-12-25T06:49:51.757Z,99.99
2017-12-25T06:51:33.788Z,99.99
2017-12-25T06:53:56.889Z,99.99
2017-12-25T06:54:42.486Z,99.99
2017-12-25T06:55:54.508Z,99.99
2017-12-25T06:56:37.716Z,99.99
2017-12-25T06:58:31.965Z,99.99
2017-12-25T06:59:30.666Z,99.99
2017-12-25T07:01:25.548Z,99.99
2017-12-25T07:02:22.979Z,99.99
2017-12-25T07:03:20.795Z,99.99
2017-12-25T07:04:18.176Z,99.99
2017-12-25T07:06:54.017Z,99.99
2017-12-25T07:07:51.822Z,99.99
2017-12-25T07:10:14.678Z,99.99
2017-12-25T07:10:58.576Z,99.99
2017-12-25T07:11:28.667Z,99.99
2017-12-25T07:12:12.782Z,99.99
2017-12-25T07:12:41.243Z,99.99
2017-12-25T07:13:11.447Z,99.99
2017-12-25T07:14:26.119Z,99.99
2017-12-25T07:15:18.834Z,99.99
2017-12-25T07:15:49.065Z,99.99
2017-12-25T07:18:13.336Z,99.99
2017-12-25T07:18:43.514Z,99.99
2017-12-25T07:19:29.888Z,99.99
2017-12-25T07:19:59.988Z,99.99
2017-12-25T07:20:28.747Z,99.99
2017-12-25T07:21:40.535Z,99.99
2017-12-25T07:22:23.880Z,99.99
2017-12-25T07:22:51.914Z,99.99
2017-12-25T07:23:19.936Z,99.99
2017-12-25T07:25:30.184Z,99.99
2017-12-25T07:26:13.518Z,99.99
2017-12-25T07:27:24.900Z,99.99
2017-12-25T07:27:53.366Z,99.99
2017-12-25T07:28:36.049Z,99.99
2017-12-25T07:29:04.065Z,99.99
2017-12-25T07:29:35.350Z,99.99
2017-12-25T07:30:34.472Z,99.99
2017-12-25T07:31:02.913Z,99.99
2017-12-25T07:31:32.660Z,99.99
2017-12-25T07:32:00.593Z,99.99
2017-12-25T07:33:27.620Z,99.99
2017-12-25T07:33:56.066Z,99.99
2017-12-25T07:34:24.064Z,99.99
2017-12-25T07:34:52.491Z,99.99
2017-12-25T07:35:21.586Z,99.99
2017-12-25T07:35:50.787Z,99.99
2017-12-25T07:36:19.211Z,99.99
2017-12-25T07:36:47.530Z,99.99
2017-12-25T07:37:17.477Z,99.99
2017-12-25T07:37:50.530Z,99.99
2017-12-25T07:38:33.062Z,99.99
2017-12-25T07:39:17.147Z,99.99
2017-12-25T07:39:45.674Z,99.99
2017-12-25T07:40:15.583Z,99.99
2017-12-25T07:40:46.014Z,99.99
2017-12-25T07:42:56.771Z,99.99
2017-12-25T07:43:51.494Z,99.99
2017-12-25T07:44:20.779Z,99.99
2017-12-25T07:46:39.637Z,99.99
2017-12-25T07:47:07.668Z,99.99
2017-12-25T07:47:36.103Z,99.99
2017-12-25T07:48:04.107Z,99.99
2017-12-25T07:48:32.556Z,99.99
2017-12-25T07:49:02.694Z,99.99
2017-12-25T07:49:30.831Z,99.99
2017-12-25T07:49:58.747Z,99.99
2017-12-25T07:51:10.329Z,99.99
2017-12-25T07:51:41.812Z,99.99
2017-12-25T07:52:10.151Z,99.99
2017-12-25T07:52:55.983Z,99.99
2017-12-25T07:53:25.118Z,99.99
2017-12-25T07:54:08.865Z,99.99
2017-12-25T07:54:51.937Z,99.99
2017-12-25T07:55:32.637Z,99.99
2017-12-25T07:56:45.800Z,99.99
2017-12-25T07:57:29.991Z,99.99
2017-12-25T07:57:58.684Z,99.99
2017-12-25T07:58:41.631Z,99.99
2017-12-25T07:59:10.733Z,99.99
2017-12-25T08:00:22.401Z,99.99
2017-12-25T08:00:51.161Z,99.99
2017-12-25T08:02:20.350Z,99.99
2017-12-25T08:02:49.803Z,99.99
2017-12-25T08:03:20.052Z,99.99
2017-12-25T08:03:48.523Z,99.99
2017-12-25T08:04:46.736Z,99.99
2017-12-25T08:05:16.194Z,99.99
2017-12-25T08:06:13.643Z,99.99
2017-12-25T08:06:56.990Z,99.99
2017-12-25T08:07:25.019Z,99.99
2017-12-25T08:08:23.397Z,99.99
2017-12-25T08:08:52.470Z,99.99
2017-12-25T08:09:21.591Z,99.99
2017-12-25T08:09:50.128Z,99.99
2017-12-25T08:10:21.330Z,99.99
2017-12-25T08:11:04.084Z,99.99
2017-12-25T08:11:45.149Z,99.99
2017-12-25T08:12:17.086Z,99.99
2017-12-25T08:13:00.255Z,99.99
2017-12-25T08:13:29.349Z,99.99
2017-12-25T08:14:12.771Z,99.99
2017-12-25T08:14:41.208Z,99.99
2017-12-25T08:15:09.641Z,99.99
2017-12-25T08:15:38.046Z,99.99
2017-12-25T08:16:06.467Z,99.99
2017-12-25T08:16:34.494Z,99.99
2017-12-25T08:17:19.029Z,99.99
2017-12-25T08:17:47.075Z,99.99
2017-12-25T08:19:00.435Z,99.99
2017-12-25T08:19:28.892Z,99.99
2017-12-25T08:19:56.914Z,99.99
2017-12-25T08:20:25.898Z,99.99
2017-12-25T08:20:54.817Z,99.99
2017-12-25T08:21:23.430Z,99.99
2017-12-25T08:21:51.859Z,99.99
2017-12-25T08:22:34.405Z,99.99
2017-12-25T08:24:29.590Z,99.99
2017-12-25T08:24:58.015Z,99.99
2017-12-25T08:25:26.825Z,99.99
2017-12-25T08:25:59.524Z,99.99
2017-12-25T08:26:30.100Z,99.99
2017-12-25T08:27:13.934Z,99.99
2017-12-25T08:27:42.442Z,99.99
2017-12-25T08:28:10.892Z,99.99
2017-12-25T08:28:54.215Z,99.99
2017-12-25T08:29:23.074Z,99.99
2017-12-25T08:30:35.469Z,99.99
2017-12-25T08:31:19.775Z,99.99
2017-12-25T08:31:49.613Z,99.99
2017-12-25T08:33:32.063Z,99.99
2017-12-25T08:34:16.258Z,99.99
2017-12-25T08:34:46.076Z,99.99
2017-12-25T08:35:15.852Z,99.99
2017-12-25T08:35:43.775Z,99.99
2017-12-25T08:36:12.795Z,99.99
2017-12-25T08:36:41.025Z,99.99
2017-12-25T08:38:55.883Z,99.99
2017-12-25T08:39:24.749Z,99.99
2017-12-25T08:40:08.103Z,99.99
2017-12-25T08:40:36.570Z,99.99
2017-12-25T08:41:19.867Z,99.99
2017-12-25T08:41:47.903Z,99.99
2017-12-25T08:42:17.913Z,99.99
2017-12-25T08:42:48.152Z,99.99
2017-12-25T08:43:31.126Z,99.99
2017-12-25T08:43:59.965Z,99.99
2017-12-25T08:44:42.615Z,99.99
2017-12-25T08:45:11.070Z,99.99
2017-12-25T08:45:39.507Z,99.99
2017-12-25T08:47:20.961Z,99.99
2017-12-25T08:49:14.676Z,99.99
2017-12-25T08:49:44.128Z,99.99
2017-12-25T08:50:13.148Z,99.99
2017-12-25T08:51:42.257Z,99.99
2017-12-25T08:52:25.634Z,99.99
2017-12-25T08:53:09.691Z,99.99
2017-12-25T08:53:53.812Z,99.99
2017-12-25T08:54:22.371Z,99.99
2017-12-25T08:54:50.510Z,99.99
2017-12-25T08:55:33.846Z,99.99
2017-12-25T08:57:14.268Z,99.99
2017-12-25T08:57:43.502Z,99.99
2017-12-25T08:58:26.858Z,99.99
2017-12-25T08:59:10.453Z,99.99
2017-12-25T08:59:54.421Z,99.99
2017-12-25T09:00:22.875Z,99.99
2017-12-25T09:02:18.433Z,99.99
2017-12-25T09:04:14.197Z,99.99
2017-12-25T09:05:13.406Z,99.99
2017-12-25T09:05:42.952Z,99.99
2017-12-25T09:06:40.963Z,99.99
2017-12-25T09:07:08.899Z,99.99
2017-12-25T09:07:36.924Z,99.99
2017-12-25T09:08:20.668Z,99.99
2017-12-25T09:09:32.624Z,99.99
2017-12-25T09:10:57.928Z,99.99
2017-12-25T09:11:26.357Z,99.99
2017-12-25T09:11:55.206Z,99.99
2017-12-25T09:12:23.720Z,99.99
2017-12-25T09:12:52.850Z,99.99
2017-12-25T09:13:22.954Z,99.99
2017-12-25T09:13:54.999Z,99.99
2017-12-25T09:14:38.180Z,99.99
2017-12-25T09:15:06.183Z,99.99
2017-12-25T09:15:50.264Z,99.99
2017-12-25T09:16:18.870Z,99.99
2017-12-25T09:16:47.310Z,99.99
2017-12-25T09:18:00.863Z,99.99
2017-12-25T09:18:30.083Z,99.99
2017-12-25T09:19:13.428Z,99.99
2017-12-25T09:19:42.273Z,99.99
2017-12-25T09:20:12.653Z,99.99
2017-12-25T09:20:42.303Z,99.99
2017-12-25T09:21:11.836Z,99.99
2017-12-25T09:21:40.301Z,99.99
2017-12-25T09:22:23.925Z,99.99
2017-12-25T09:22:52.805Z,99.99
2017-12-25T09:23:22.366Z,99.99
2017-12-25T09:23:52.487Z,99.99
2017-12-25T09:24:20.641Z,99.99
2017-12-25T09:24:50.505Z,99.99
2017-12-25T09:26:46.597Z,99.99
2017-12-25T09:27:14.594Z,99.99
2017-12-25T09:27:48.418Z,99.99
2017-12-25T09:30:28.291Z,99.99
2017-12-25T09:30:56.198Z,99.99
2017-12-25T09:31:25.037Z,99.99
2017-12-25T09:31:53.916Z,99.99
2017-12-25T09:32:25.901Z,99.99
2017-12-25T09:33:09.712Z,99.99
2017-12-25T09:33:53.530Z,99.99
2017-12-25T09:34:22.379Z,99.99
2017-12-25T09:34:51.162Z,99.99
2017-12-25T09:35:19.707Z,99.99
2017-12-25T09:35:48.114Z,99.99
2017-12-25T09:37:15.065Z,99.99
2017-12-25T09:37:58.959Z,99.99
2017-12-25T09:38:27.314Z,99.99
2017-12-25T09:39:21.629Z,99.99
2017-12-25T09:42:19.511Z,99.99
2017-12-25T09:43:03.448Z,99.99
2017-12-25T09:45:12.430Z,99.99
2017-12-25T09:45:42.908Z,99.99
2017-12-25T09:46:26.285Z,99.99
2017-12-25T09:47:10.036Z,99.99
2017-12-25T09:47:40.974Z,99.99
2017-12-25T09:48:28.622Z,99.99
2017-12-25T09:49:37.499Z,99.99
2017-12-25T09:50:05.923Z,99.99
2017-12-25T09:50:33.957Z,99.99
2017-12-25T09:51:03.352Z,99.99
2017-12-25T09:51:32.606Z,99.99
2017-12-25T09:52:16.322Z,99.99
2017-12-25T09:54:54.747Z,99.99
2017-12-25T09:55:38.200Z,99.99
2017-12-25T09:56:21.534Z,99.99
2017-12-25T09:56:50.358Z,99.99
2017-12-25T09:57:18.797Z,99.99
2017-12-25T09:58:30.405Z,99.99
2017-12-25T09:59:28.515Z,99.99
2017-12-25T09:59:56.636Z,99.99
2017-12-25T10:00:25.506Z,99.99
2017-12-25T10:03:22.514Z,99.99
2017-12-25T10:05:17.767Z,99.99
2017-12-25T10:07:18.193Z,99.99
2017-12-25T10:07:46.555Z,99.99
2017-12-25T10:08:15.065Z,99.99
2017-12-25T10:08:45.694Z,99.99
2017-12-25T10:09:14.523Z,99.99
2017-12-25T10:09:42.951Z,99.99
2017-12-25T10:11:23.021Z,99.99
2017-12-25T10:11:52.270Z,99.99
2017-12-25T10:12:35.941Z,99.99
2017-12-25T10:13:47.538Z,99.99
2017-12-25T10:14:58.799Z,99.99
2017-12-25T10:15:27.520Z,99.99
2017-12-25T10:16:11.636Z,99.99
2017-12-25T10:16:40.450Z,99.99
2017-12-25T10:18:50.702Z,99.99
2017-12-25T10:20:18.066Z,99.99
2017-12-25T10:20:48.818Z,99.99
2017-12-25T10:21:32.106Z,99.99
2017-12-25T10:22:01.080Z,99.99
2017-12-25T10:22:43.624Z,99.99
2017-12-25T10:23:11.614Z,99.99
2017-12-25T10:23:40.049Z,99.99
2017-12-25T10:24:09.338Z,99.99
2017-12-25T10:25:07.576Z,99.99
2017-12-25T10:25:50.913Z,99.99
2017-12-25T10:26:19.379Z,99.99
2017-12-25T10:27:02.718Z,99.99
2017-12-25T10:27:45.776Z,99.99
2017-12-25T10:28:29.022Z,99.99
2017-12-25T10:29:55.351Z,99.99
2017-12-25T10:30:38.341Z,99.99
2017-12-25T10:31:07.233Z,99.99
2017-12-25T10:33:08.101Z,99.99
2017-12-25T10:34:07.400Z,99.99
2017-12-25T10:35:04.462Z,99.99
2017-12-25T10:35:32.479Z,99.99
2017-12-25T10:36:01.152Z,99.99
2017-12-25T10:36:45.334Z,99.99
2017-12-25T10:37:13.373Z,99.99
2017-12-25T10:37:48.507Z,99.99
2017-12-25T10:38:33.099Z,99.99
2017-12-25T10:39:02.811Z,99.99
2017-12-25T10:39:32.575Z,99.99
2017-12-25T10:40:15.548Z,99.99
2017-12-25T10:40:49.731Z,99.99
2017-12-25T10:41:17.546Z,99.99
2017-12-25T10:42:01.315Z,99.99
2017-12-25T10:42:30.011Z,99.99
2017-12-25T10:42:58.430Z,99.99
2017-12-25T10:43:40.956Z,99.99
2017-12-25T10:44:09.399Z,99.99
2017-12-25T10:44:37.980Z,99.99
2017-12-25T10:45:08.736Z,99.99
2017-12-25T10:46:20.239Z,99.99
2017-12-25T10:46:48.704Z,99.99
2017-12-25T10:47:17.421Z,99.99
2017-12-25T10:49:26.082Z,99.99
2017-12-25T10:50:24.010Z,99.99
2017-12-25T10:51:06.460Z,99.99
2017-12-25T10:54:06.657Z,99.99
2017-12-25T10:54:34.907Z,99.99
2017-12-25T10:56:03.626Z,99.99
2017-12-25T10:56:31.875Z,99.99
2017-12-25T10:57:00.687Z,99.99
2017-12-25T10:57:32.944Z,99.99
2017-12-25T10:58:16.283Z,99.99
2017-12-25T10:58:44.716Z,99.99
2017-12-25T10:59:14.314Z,99.99
2017-12-25T10:59:43.523Z,99.99
2017-12-25T11:00:12.316Z,99.99
2017-12-25T11:02:07.408Z,99.99
2017-12-25T11:04:04.642Z,99.99
2017-12-25T11:05:59.571Z,99.99
2017-12-25T11:07:26.432Z,99.99
2017-12-25T11:07:55.250Z,99.99
2017-12-25T11:08:30.278Z,99.99
2017-12-25T11:08:59.070Z,99.99
2017-12-25T11:10:11.368Z,99.99
2017-12-25T11:10:40.186Z,99.99
2017-12-25T11:11:08.916Z,99.99
2017-12-25T11:12:20.524Z,99.99
2017-12-25T11:13:03.169Z,99.99
2017-12-25T11:15:27.494Z,99.99
2017-12-25T11:15:57.012Z,99.99
2017-12-25T11:16:40.696Z,99.99
2017-12-25T11:17:10.058Z,99.99
2017-12-25T11:18:51.898Z,99.99
2017-12-25T11:20:47.572Z,99.99
2017-12-25T11:21:15.821Z,99.99
2017-12-25T11:21:45.438Z,99.99
2017-12-25T11:23:36.738Z,99.99
2017-12-25T11:24:07.547Z,99.99
2017-12-25T11:25:33.684Z,99.99
2017-12-25T11:26:02.394Z,99.99
2017-12-25T11:26:30.999Z,99.99
2017-12-25T11:27:05.006Z,99.99
2017-12-25T11:27:36.084Z,99.99
2017-12-25T11:28:04.085Z,99.99
2017-12-25T11:28:48.477Z,99.99
2017-12-25T11:29:16.907Z,99.99
2017-12-25T11:29:45.764Z,99.99
2017-12-25T11:30:20.476Z,99.99
2017-12-25T11:30:49.411Z,99.99
2017-12-25T11:31:33.303Z,99.99
2017-12-25T11:34:00.323Z,99.99
2017-12-25T11:34:55.922Z,99.99
2017-12-25T11:35:25.064Z,99.99
2017-12-25T11:35:54.750Z,99.99
2017-12-25T11:36:24.233Z,99.99
2017-12-25T11:36:52.673Z,99.99
2017-12-25T11:37:20.494Z,99.99
2017-12-25T11:39:01.760Z,99.99
2017-12-25T11:39:31.342Z,99.99
2017-12-25T11:39:59.260Z,99.99
2017-12-25T11:40:28.411Z,99.99
2017-12-25T11:41:12.303Z,99.99
2017-12-25T11:41:56.644Z,99.99
2017-12-25T11:42:40.183Z,99.99
2017-12-25T11:43:09.004Z,99.99
2017-12-25T11:43:52.021Z,99.75
2017-12-25T11:44:49.886Z,99.99
2017-12-25T11:45:19.109Z,99.99
2017-12-25T11:45:48.514Z,99.99
2017-12-25T11:46:16.520Z,99.99
2017-12-25T11:46:46.268Z,99.99
2017-12-25T11:47:14.824Z,99.99
2017-12-25T11:47:43.093Z,99.99
2017-12-25T11:48:11.529Z,99.99
2017-12-25T11:48:39.366Z,99.99
2017-12-25T11:49:09.506Z,99.99
2017-12-25T11:49:38.765Z,99.99
2017-12-25T11:50:07.490Z,99.99
2017-12-25T11:50:36.286Z,99.99
2017-12-25T11:51:19.627Z,99.99
2017-12-25T11:53:14.652Z,98.68
2017-12-25T11:55:03.245Z,99.99
2017-12-25T11:56:06.772Z,99.99
2017-12-25T11:59:27.266Z,99.99
2017-12-25T12:00:24.903Z,98.29
2017-12-25T12:01:21.780Z,97.03
2017-12-25T12:01:49.718Z,96.5
2017-12-25T12:02:18.582Z,96.01
2017-12-25T12:02:46.509Z,94.65
2017-12-25T12:03:16.296Z,94.45
2017-12-25T12:03:44.971Z,95.57
2017-12-25T12:04:29.481Z,96.55
2017-12-25T12:04:58.196Z,96.11
2017-12-25T12:05:56.089Z,94.84
2017-12-25T12:06:43.210Z,97.27
2017-12-25T12:10:33.116Z,99.99
2017-12-25T12:11:16.527Z,99.99
2017-12-25T12:11:45.184Z,99.99
2017-12-25T12:12:28.519Z,99.99
2017-12-25T12:12:58.083Z,99.99
2017-12-25T12:13:41.371Z,99.99
2017-12-25T12:14:14.862Z,99.99
2017-12-25T12:14:58.197Z,99.99
2017-12-25T12:15:26.908Z,99.99
2017-12-25T12:16:09.952Z,99.99
2017-12-25T12:16:37.779Z,99.99
2017-12-25T12:17:06.242Z,99.99
2017-12-25T12:17:34.104Z,99.99
2017-12-25T12:19:42.733Z,99.99
2017-12-25T12:20:11.593Z,99.99
2017-12-25T12:20:55.597Z,99.99
2017-12-25T12:21:24.450Z,99.99
2017-12-25T12:21:52.872Z,99.99
2017-12-25T12:24:31.320Z,93.04
2017-12-25T12:24:59.998Z,91.04
2017-12-25T12:27:51.545Z,97.56
2017-12-25T12:28:19.474Z,98.2
2017-12-25T12:30:38.566Z,98.58
2017-12-25T12:31:07.016Z,99.07
2017-12-25T12:31:36.701Z,99.27
2017-12-25T12:33:46.188Z,96.89
2017-12-25T12:34:14.159Z,97.27
2017-12-25T12:35:07.862Z,98.15
2017-12-25T12:35:36.279Z,99.99
2017-12-25T12:36:04.719Z,99.99
2017-12-25T12:36:34.370Z,99.99
2017-12-25T12:37:05.040Z,99.99
2017-12-25T12:37:34.352Z,99.99
2017-12-25T12:38:04.386Z,99.99
2017-12-25T12:38:32.723Z,99.99
2017-12-25T12:39:02.357Z,99.99
2017-12-25T12:40:58.090Z,99.99
2017-12-25T12:41:26.874Z,99.99
2017-12-25T12:42:09.493Z,99.99
2017-12-25T12:43:36.932Z,99.99
2017-12-25T12:45:17.408Z,98.34
2017-12-25T12:45:46.413Z,96.83
2017-12-25T12:46:14.803Z,96.64
2017-12-25T12:51:05.194Z,92.74
2017-12-25T12:52:02.069Z,93.92
2017-12-25T12:53:28.991Z,92.55
2017-12-25T12:54:27.054Z,92.46
2017-12-25T12:56:50.969Z,93.38
2017-12-25T12:58:03.030Z,94.31
2017-12-25T12:58:46.943Z,97.08
2017-12-25T12:59:44.019Z,97.08
2017-12-25T13:00:12.631Z,97.22
2017-12-25T13:00:55.492Z,95.28
2017-12-25T13:01:24.349Z,95.38
2017-12-25T13:01:53.831Z,95.57
2017-12-25T13:03:48.209Z,96.89
2017-12-25T13:04:17.225Z,98.44
2017-12-25T13:04:45.991Z,98.78
2017-12-25T13:05:43.298Z,99.99
2017-12-25T13:06:12.149Z,99.99
2017-12-25T13:07:24.177Z,99.99
2017-12-25T13:07:52.205Z,99.99
2017-12-25T13:09:46.269Z,99.99
2017-12-25T13:10:28.725Z,99.99
2017-12-25T13:10:57.600Z,99.99